sensor_id;sensor_type;location;lat;lon;timestamp;temperature;humidity
46562;DHT22;32289;42.688;23.330;2023-04-24T00:00:57;11.30;99.90
46562;DHT22;32289;42.688;23.330;2023-04-24T00:04:38;11.20;99.90
46562;DHT22;32289;42.688;23.330;2023-04-24T00:08:24;11.20;99.90
46562;DHT22;32289;42.688;23.330;2023-04-24T00:12:05;11.00;99.90
46562;DHT22;32289;42.688;23.330;2023-04-24T00:15:46;10.70;99.90
46562;DHT22;32289;42.688;23.330;2023-04-24T00:19:28;10.50;99.90
46562;DHT22;32289;42.688;23.330;2023-04-24T00:23:09;10.50;99.90
46562;DHT22;32289;42.688;23.330;2023-04-24T00:26:50;10.60;99.90
46562;DHT22;32289;42.688;23.330;2023-04-24T00:30:31;10.40;99.90
46562;DHT22;32289;42.688;23.330;2023-04-24T00:34:11;10.60;99.90
46562;DHT22;32289;42.688;23.330;2023-04-24T00:37:52;10.70;99.90
46562;DHT22;32289;42.688;23.330;2023-04-24T00:41:33;10.70;99.90
46562;DHT22;32289;42.688;23.330;2023-04-24T00:45:14;10.70;99.90
46562;DHT22;32289;42.688;23.330;2023-04-24T00:48:56;10.70;99.90
46562;DHT22;32289;42.688;23.330;2023-04-24T00:52:37;10.60;99.80
46562;DHT22;32289;42.688;23.330;2023-04-24T00:56:18;10.70;99.60
46562;DHT22;32289;42.688;23.330;2023-04-24T00:59:59;10.60;99.10
46562;DHT22;32289;42.688;23.330;2023-04-24T01:03:40;10.70;99.50
46562;DHT22;32289;42.688;23.330;2023-04-24T01:07:21;10.60;99.20
46562;DHT22;32289;42.688;23.330;2023-04-24T01:11:03;10.70;99.90
46562;DHT22;32289;42.688;23.330;2023-04-24T01:14:45;10.60;99.90
46562;DHT22;32289;42.688;23.330;2023-04-24T01:18:26;10.30;99.90
46562;DHT22;32289;42.688;23.330;2023-04-24T01:22:15;10.20;99.90
46562;DHT22;32289;42.688;23.330;2023-04-24T01:25:59;10.00;99.90
46562;DHT22;32289;42.688;23.330;2023-04-24T01:29:40;10.00;99.90
46562;DHT22;32289;42.688;23.330;2023-04-24T01:33:22;10.00;99.90
46562;DHT22;32289;42.688;23.330;2023-04-24T01:37:03;10.00;99.90
46562;DHT22;32289;42.688;23.330;2023-04-24T01:40:46;9.90;99.90
46562;DHT22;32289;42.688;23.330;2023-04-24T01:44:27;10.00;99.90
46562;DHT22;32289;42.688;23.330;2023-04-24T01:48:08;9.90;99.90
46562;DHT22;32289;42.688;23.330;2023-04-24T01:51:49;9.90;99.90
46562;DHT22;32289;42.688;23.330;2023-04-24T01:55:30;9.60;99.90
46562;DHT22;32289;42.688;23.330;2023-04-24T01:59:11;9.60;99.90
46562;DHT22;32289;42.688;23.330;2023-04-24T02:02:52;9.60;99.90
46562;DHT22;32289;42.688;23.330;2023-04-24T02:06:33;9.80;99.90
46562;DHT22;32289;42.688;23.330;2023-04-24T02:10:14;9.80;99.90
46562;DHT22;32289;42.688;23.330;2023-04-24T02:13:54;9.60;99.90
46562;DHT22;32289;42.688;23.330;2023-04-24T02:17:35;9.70;99.90
46562;DHT22;32289;42.688;23.330;2023-04-24T02:21:16;9.70;99.90
46562;DHT22;32289;42.688;23.330;2023-04-24T02:24:57;9.60;99.90
46562;DHT22;32289;42.688;23.330;2023-04-24T02:28:38;9.50;99.90
46562;DHT22;32289;42.688;23.330;2023-04-24T02:32:18;9.50;99.90
46562;DHT22;32289;42.688;23.330;2023-04-24T02:35:59;9.50;99.90
46562;DHT22;32289;42.688;23.330;2023-04-24T02:39:40;9.50;99.90
46562;DHT22;32289;42.688;23.330;2023-04-24T02:43:21;9.40;99.90
46562;DHT22;32289;42.688;23.330;2023-04-24T02:47:02;9.40;99.90
46562;DHT22;32289;42.688;23.330;2023-04-24T02:50:43;9.30;99.90
46562;DHT22;32289;42.688;23.330;2023-04-24T02:54:24;9.20;99.90
46562;DHT22;32289;42.688;23.330;2023-04-24T02:58:05;9.10;99.90
46562;DHT22;32289;42.688;23.330;2023-04-24T03:01:46;9.20;99.90
46562;DHT22;32289;42.688;23.330;2023-04-24T03:05:27;9.30;99.90
46562;DHT22;32289;42.688;23.330;2023-04-24T03:09:07;9.30;99.90
46562;DHT22;32289;42.688;23.330;2023-04-24T03:12:48;9.20;99.90
46562;DHT22;32289;42.688;23.330;2023-04-24T03:16:29;9.10;99.90
46562;DHT22;32289;42.688;23.330;2023-04-24T03:20:10;9.20;99.90
46562;DHT22;32289;42.688;23.330;2023-04-24T03:23:51;9.10;99.90
46562;DHT22;32289;42.688;23.330;2023-04-24T03:27:31;9.10;99.90
46562;DHT22;32289;42.688;23.330;2023-04-24T03:31:12;9.20;99.90
46562;DHT22;32289;42.688;23.330;2023-04-24T03:34:53;9.30;99.90
46562;DHT22;32289;42.688;23.330;2023-04-24T03:38:34;9.30;99.90
46562;DHT22;32289;42.688;23.330;2023-04-24T03:42:14;9.40;99.90
46562;DHT22;32289;42.688;23.330;2023-04-24T03:45:55;9.50;99.90
46562;DHT22;32289;42.688;23.330;2023-04-24T03:49:36;9.50;99.90
46562;DHT22;32289;42.688;23.330;2023-04-24T03:53:17;9.60;99.90
46562;DHT22;32289;42.688;23.330;2023-04-24T03:56:57;9.60;99.90
46562;DHT22;32289;42.688;23.330;2023-04-24T04:00:38;9.70;99.90
46562;DHT22;32289;42.688;23.330;2023-04-24T04:04:20;9.80;99.90
46562;DHT22;32289;42.688;23.330;2023-04-24T04:08:01;10.10;99.90
46562;DHT22;32289;42.688;23.330;2023-04-24T04:11:42;10.20;99.90
46562;DHT22;32289;42.688;23.330;2023-04-24T04:15:23;10.30;99.90
46562;DHT22;32289;42.688;23.330;2023-04-24T04:19:03;10.20;99.90
46562;DHT22;32289;42.688;23.330;2023-04-24T04:22:44;10.10;99.90
46562;DHT22;32289;42.688;23.330;2023-04-24T04:26:25;9.60;99.90
46562;DHT22;32289;42.688;23.330;2023-04-24T04:30:06;9.60;99.90
46562;DHT22;32289;42.688;23.330;2023-04-24T04:33:47;9.90;99.90
46562;DHT22;32289;42.688;23.330;2023-04-24T04:37:31;9.60;99.90
46562;DHT22;32289;42.688;23.330;2023-04-24T04:41:11;9.70;99.90
46562;DHT22;32289;42.688;23.330;2023-04-24T04:44:52;9.80;99.90
46562;DHT22;32289;42.688;23.330;2023-04-24T04:48:33;9.90;99.90
46562;DHT22;32289;42.688;23.330;2023-04-24T04:52:14;10.20;99.90
46562;DHT22;32289;42.688;23.330;2023-04-24T04:55:56;10.50;99.90
46562;DHT22;32289;42.688;23.330;2023-04-24T04:59:37;10.70;99.90
46562;DHT22;32289;42.688;23.330;2023-04-24T05:03:18;10.60;99.90
46562;DHT22;32289;42.688;23.330;2023-04-24T05:06:58;10.50;99.90
46562;DHT22;32289;42.688;23.330;2023-04-24T05:10:39;10.80;99.90
46562;DHT22;32289;42.688;23.330;2023-04-24T05:14:19;11.00;99.80
46562;DHT22;32289;42.688;23.330;2023-04-24T05:18:00;10.90;99.80
46562;DHT22;32289;42.688;23.330;2023-04-24T05:21:41;10.70;99.90
46562;DHT22;32289;42.688;23.330;2023-04-24T05:25:22;10.80;99.90
46562;DHT22;32289;42.688;23.330;2023-04-24T05:29:03;11.00;99.70
46562;DHT22;32289;42.688;23.330;2023-04-24T05:32:43;11.10;99.30
46562;DHT22;32289;42.688;23.330;2023-04-24T05:36:25;11.10;99.70
46562;DHT22;32289;42.688;23.330;2023-04-24T05:40:08;11.30;99.20
46562;DHT22;32289;42.688;23.330;2023-04-24T05:43:49;11.50;99.00
46562;DHT22;32289;42.688;23.330;2023-04-24T05:47:30;12.40;96.10
46562;DHT22;32289;42.688;23.330;2023-04-24T05:51:10;11.80;97.30
46562;DHT22;32289;42.688;23.330;2023-04-24T05:54:51;12.70;95.50
46562;DHT22;32289;42.688;23.330;2023-04-24T05:58:32;12.60;93.70
46562;DHT22;32289;42.688;23.330;2023-04-24T06:02:12;12.40;95.10
46562;DHT22;32289;42.688;23.330;2023-04-24T06:05:53;13.30;96.90
46562;DHT22;32289;42.688;23.330;2023-04-24T06:09:34;15.70;85.30
46562;DHT22;32289;42.688;23.330;2023-04-24T06:13:15;16.30;70.30
46562;DHT22;32289;42.688;23.330;2023-04-24T06:16:56;15.20;73.00
46562;DHT22;32289;42.688;23.330;2023-04-24T06:20:37;16.20;70.30
46562;DHT22;32289;42.688;23.330;2023-04-24T06:24:17;18.00;64.00
46562;DHT22;32289;42.688;23.330;2023-04-24T06:27:58;18.20;61.50
46562;DHT22;32289;42.688;23.330;2023-04-24T06:31:39;18.00;63.50
46562;DHT22;32289;42.688;23.330;2023-04-24T06:35:20;16.00;70.10
46562;DHT22;32289;42.688;23.330;2023-04-24T06:39:04;15.30;69.00
46562;DHT22;32289;42.688;23.330;2023-04-24T06:42:45;14.60;72.50
46562;DHT22;32289;42.688;23.330;2023-04-24T06:46:26;15.30;69.70
46562;DHT22;32289;42.688;23.330;2023-04-24T06:50:08;16.30;67.00
46562;DHT22;32289;42.688;23.330;2023-04-24T06:53:49;17.10;67.80
46562;DHT22;32289;42.688;23.330;2023-04-24T06:57:30;16.20;72.50
46562;DHT22;32289;42.688;23.330;2023-04-24T07:01:11;15.60;69.10
46562;DHT22;32289;42.688;23.330;2023-04-24T07:04:52;15.20;70.70
46562;DHT22;32289;42.688;23.330;2023-04-24T07:08:33;14.60;73.40
46562;DHT22;32289;42.688;23.330;2023-04-24T07:12:14;15.40;72.20
46562;DHT22;32289;42.688;23.330;2023-04-24T07:15:54;16.30;69.60
46562;DHT22;32289;42.688;23.330;2023-04-24T07:19:36;18.20;64.00
46562;DHT22;32289;42.688;23.330;2023-04-24T07:23:18;19.90;60.10
46562;DHT22;32289;42.688;23.330;2023-04-24T07:26:58;20.00;59.30
46562;DHT22;32289;42.688;23.330;2023-04-24T07:30:41;21.30;56.00
46562;DHT22;32289;42.688;23.330;2023-04-24T07:34:22;18.50;60.10
46562;DHT22;32289;42.688;23.330;2023-04-24T07:38:02;18.90;59.70
46562;DHT22;32289;42.688;23.330;2023-04-24T07:41:43;23.00;53.70
46562;DHT22;32289;42.688;23.330;2023-04-24T07:45:24;22.60;52.50
46562;DHT22;32289;42.688;23.330;2023-04-24T07:49:06;21.20;54.00
46562;DHT22;32289;42.688;23.330;2023-04-24T07:52:47;22.60;53.30
46562;DHT22;32289;42.688;23.330;2023-04-24T07:56:28;22.80;49.30
46562;DHT22;32289;42.688;23.330;2023-04-24T08:00:11;21.30;52.60
46562;DHT22;32289;42.688;23.330;2023-04-24T08:03:52;22.40;53.40
46562;DHT22;32289;42.688;23.330;2023-04-24T08:07:33;21.40;51.80
46562;DHT22;32289;42.688;23.330;2023-04-24T08:11:13;21.70;53.10
46562;DHT22;32289;42.688;23.330;2023-04-24T08:14:54;21.80;52.30
46562;DHT22;32289;42.688;23.330;2023-04-24T08:18:35;21.70;52.10
46562;DHT22;32289;42.688;23.330;2023-04-24T08:22:16;21.60;52.30
46562;DHT22;32289;42.688;23.330;2023-04-24T08:25:57;22.50;52.00
46562;DHT22;32289;42.688;23.330;2023-04-24T08:29:38;23.20;51.70
46562;DHT22;32289;42.688;23.330;2023-04-24T08:33:18;25.90;47.00
46562;DHT22;32289;42.688;23.330;2023-04-24T08:36:59;24.00;49.30
46562;DHT22;32289;42.688;23.330;2023-04-24T08:40:40;23.20;50.30
46562;DHT22;32289;42.688;23.330;2023-04-24T08:44:21;25.70;47.60
46562;DHT22;32289;42.688;23.330;2023-04-24T08:48:02;22.90;49.30
46562;DHT22;32289;42.688;23.330;2023-04-24T08:51:45;22.40;52.00
46562;DHT22;32289;42.688;23.330;2023-04-24T08:55:30;22.00;52.50
46562;DHT22;32289;42.688;23.330;2023-04-24T08:59:11;22.90;50.00
46562;DHT22;32289;42.688;23.330;2023-04-24T09:02:53;22.60;50.10
46562;DHT22;32289;42.688;23.330;2023-04-24T09:06:34;22.50;50.10
46562;DHT22;32289;42.688;23.330;2023-04-24T09:10:15;23.60;49.40
46562;DHT22;32289;42.688;23.330;2023-04-24T09:13:56;22.50;49.00
46562;DHT22;32289;42.688;23.330;2023-04-24T09:17:38;24.20;48.50
46562;DHT22;32289;42.688;23.330;2023-04-24T09:21:21;23.90;47.60
46562;DHT22;32289;42.688;23.330;2023-04-24T09:25:05;20.90;53.50
46562;DHT22;32289;42.688;23.330;2023-04-24T09:28:47;20.00;55.30
46562;DHT22;32289;42.688;23.330;2023-04-24T09:32:28;20.50;54.60
46562;DHT22;32289;42.688;23.330;2023-04-24T09:36:10;21.60;52.20
46562;DHT22;32289;42.688;23.330;2023-04-24T09:43:54;23.30;49.40
46562;DHT22;32289;42.688;23.330;2023-04-24T09:47:41;23.40;49.30
46562;DHT22;32289;42.688;23.330;2023-04-24T09:51:35;23.10;48.90
46562;DHT22;32289;42.688;23.330;2023-04-24T09:55:20;21.90;50.50
46562;DHT22;32289;42.688;23.330;2023-04-24T09:59:08;23.10;50.50
46562;DHT22;32289;42.688;23.330;2023-04-24T10:03:15;23.20;49.50
46562;DHT22;32289;42.688;23.330;2023-04-24T10:06:58;21.70;51.60
46562;DHT22;32289;42.688;23.330;2023-04-24T10:10:42;23.00;50.40
46562;DHT22;32289;42.688;23.330;2023-04-24T10:14:24;23.40;48.60
46562;DHT22;32289;42.688;23.330;2023-04-24T10:18:05;24.70;47.10
46562;DHT22;32289;42.688;23.330;2023-04-24T10:21:49;25.00;46.40
46562;DHT22;32289;42.688;23.330;2023-04-24T10:25:35;22.00;50.40
46562;DHT22;32289;42.688;23.330;2023-04-24T10:29:18;23.20;49.70
46562;DHT22;32289;42.688;23.330;2023-04-24T10:32:59;21.70;50.90
46562;DHT22;32289;42.688;23.330;2023-04-24T10:36:43;22.00;51.80
46562;DHT22;32289;42.688;23.330;2023-04-24T10:40:31;23.50;49.40
46562;DHT22;32289;42.688;23.330;2023-04-24T10:44:15;21.60;51.20
46562;DHT22;32289;42.688;23.330;2023-04-24T10:48:04;21.00;52.10
46562;DHT22;32289;42.688;23.330;2023-04-24T10:51:52;20.80;52.60
46562;DHT22;32289;42.688;23.330;2023-04-24T10:55:45;20.60;53.30
46562;DHT22;32289;42.688;23.330;2023-04-24T10:59:27;21.30;51.70
46562;DHT22;32289;42.688;23.330;2023-04-24T11:03:27;21.20;51.30
46562;DHT22;32289;42.688;23.330;2023-04-24T11:07:09;21.10;51.90
46562;DHT22;32289;42.688;23.330;2023-04-24T11:10:59;20.70;53.20
46562;DHT22;32289;42.688;23.330;2023-04-24T11:15:00;20.80;53.50
46562;DHT22;32289;42.688;23.330;2023-04-24T11:18:44;20.40;54.00
46562;DHT22;32289;42.688;23.330;2023-04-24T11:22:33;20.00;54.70
46562;DHT22;32289;42.688;23.330;2023-04-24T11:26:21;19.80;54.80
46562;DHT22;32289;42.688;23.330;2023-04-24T11:30:04;19.80;56.60
46562;DHT22;32289;42.688;23.330;2023-04-24T11:33:45;17.70;90.80
46562;DHT22;32289;42.688;23.330;2023-04-24T11:37:29;17.60;98.40
46562;DHT22;32289;42.688;23.330;2023-04-24T11:41:13;19.40;99.90
46562;DHT22;32289;42.688;23.330;2023-04-24T11:44:55;19.30;92.90
46562;DHT22;32289;42.688;23.330;2023-04-24T11:48:36;19.40;86.00
46562;DHT22;32289;42.688;23.330;2023-04-24T11:52:20;19.30;81.10
46562;DHT22;32289;42.688;23.330;2023-04-24T11:56:04;20.10;70.00
46562;DHT22;32289;42.688;23.330;2023-04-24T11:59:45;20.90;68.00
46562;DHT22;32289;42.688;23.330;2023-04-24T12:03:27;20.90;64.50
46562;DHT22;32289;42.688;23.330;2023-04-24T12:07:07;20.90;61.30
46562;DHT22;32289;42.688;23.330;2023-04-24T12:10:51;20.70;57.80
46562;DHT22;32289;42.688;23.330;2023-04-24T12:14:32;20.50;58.70
46562;DHT22;32289;42.688;23.330;2023-04-24T12:18:13;20.60;58.50
46562;DHT22;32289;42.688;23.330;2023-04-24T12:22:02;20.60;58.30
46562;DHT22;32289;42.688;23.330;2023-04-24T12:25:43;20.50;59.20
46562;DHT22;32289;42.688;23.330;2023-04-24T12:29:25;20.60;59.10
46562;DHT22;32289;42.688;23.330;2023-04-24T12:33:05;20.40;60.40
46562;DHT22;32289;42.688;23.330;2023-04-24T12:36:47;20.80;58.90
46562;DHT22;32289;42.688;23.330;2023-04-24T12:40:28;21.10;57.10
46562;DHT22;32289;42.688;23.330;2023-04-24T12:44:10;21.50;55.50
46562;DHT22;32289;42.688;23.330;2023-04-24T12:47:51;21.20;56.00
46562;DHT22;32289;42.688;23.330;2023-04-24T12:51:32;20.90;56.30
46562;DHT22;32289;42.688;23.330;2023-04-24T12:55:12;20.60;56.20
46562;DHT22;32289;42.688;23.330;2023-04-24T12:58:53;20.40;56.30
46562;DHT22;32289;42.688;23.330;2023-04-24T13:02:34;20.10;57.50
46562;DHT22;32289;42.688;23.330;2023-04-24T13:06:15;20.20;57.10
46562;DHT22;32289;42.688;23.330;2023-04-24T13:09:56;20.30;57.40
46562;DHT22;32289;42.688;23.330;2023-04-24T13:13:38;20.20;57.10
46562;DHT22;32289;42.688;23.330;2023-04-24T13:17:18;20.20;56.50
46562;DHT22;32289;42.688;23.330;2023-04-24T13:20:59;20.60;56.50
46562;DHT22;32289;42.688;23.330;2023-04-24T13:24:40;20.70;57.00
46562;DHT22;32289;42.688;23.330;2023-04-24T13:28:21;21.10;55.80
46562;DHT22;32289;42.688;23.330;2023-04-24T13:32:02;21.50;56.10
46562;DHT22;32289;42.688;23.330;2023-04-24T13:35:43;21.50;55.10
46562;DHT22;32289;42.688;23.330;2023-04-24T13:39:24;21.90;54.10
46562;DHT22;32289;42.688;23.330;2023-04-24T13:43:06;21.50;55.70
46562;DHT22;32289;42.688;23.330;2023-04-24T13:46:49;21.50;54.70
46562;DHT22;32289;42.688;23.330;2023-04-24T13:50:31;21.20;56.20
46562;DHT22;32289;42.688;23.330;2023-04-24T13:54:11;20.70;56.20
46562;DHT22;32289;42.688;23.330;2023-04-24T13:57:52;20.90;55.70
46562;DHT22;32289;42.688;23.330;2023-04-24T14:01:35;21.10;55.30
46562;DHT22;32289;42.688;23.330;2023-04-24T14:05:16;21.10;55.90
46562;DHT22;32289;42.688;23.330;2023-04-24T14:08:57;20.70;56.80
46562;DHT22;32289;42.688;23.330;2023-04-24T14:12:37;20.70;57.60
46562;DHT22;32289;42.688;23.330;2023-04-24T14:16:18;20.70;58.20
46562;DHT22;32289;42.688;23.330;2023-04-24T14:19:59;20.90;57.90
46562;DHT22;32289;42.688;23.330;2023-04-24T14:23:40;20.40;59.50
46562;DHT22;32289;42.688;23.330;2023-04-24T14:27:21;20.20;61.10
46562;DHT22;32289;42.688;23.330;2023-04-24T14:31:02;20.10;61.10
46562;DHT22;32289;42.688;23.330;2023-04-24T14:34:43;19.80;61.90
46562;DHT22;32289;42.688;23.330;2023-04-24T14:38:23;18.40;65.10
46562;DHT22;32289;42.688;23.330;2023-04-24T14:42:04;18.40;68.40
46562;DHT22;32289;42.688;23.330;2023-04-24T14:45:45;17.60;70.40
46562;DHT22;32289;42.688;23.330;2023-04-24T14:49:26;17.70;69.80
46562;DHT22;32289;42.688;23.330;2023-04-24T14:53:07;17.90;68.50
46562;DHT22;32289;42.688;23.330;2023-04-24T14:56:47;17.70;68.40
46562;DHT22;32289;42.688;23.330;2023-04-24T15:00:28;17.90;68.40
46562;DHT22;32289;42.688;23.330;2023-04-24T15:04:09;18.00;67.70
46562;DHT22;32289;42.688;23.330;2023-04-24T15:07:50;18.20;67.30
46562;DHT22;32289;42.688;23.330;2023-04-24T15:11:31;18.00;69.20
46562;DHT22;32289;42.688;23.330;2023-04-24T15:15:12;17.90;69.30
46562;DHT22;32289;42.688;23.330;2023-04-24T15:18:53;17.70;70.60
46562;DHT22;32289;42.688;23.330;2023-04-24T15:22:34;17.70;70.80
46562;DHT22;32289;42.688;23.330;2023-04-24T15:26:14;17.50;71.40
46562;DHT22;32289;42.688;23.330;2023-04-24T15:29:55;17.20;73.00
46562;DHT22;32289;42.688;23.330;2023-04-24T15:33:38;17.10;73.10
46562;DHT22;32289;42.688;23.330;2023-04-24T15:37:19;17.10;74.80
46562;DHT22;32289;42.688;23.330;2023-04-24T15:41:00;17.10;73.80
46562;DHT22;32289;42.688;23.330;2023-04-24T15:44:40;17.10;74.70
46562;DHT22;32289;42.688;23.330;2023-04-24T15:48:21;16.90;76.00
46562;DHT22;32289;42.688;23.330;2023-04-24T15:52:02;16.80;76.60
46562;DHT22;32289;42.688;23.330;2023-04-24T15:55:43;16.90;78.00
46562;DHT22;32289;42.688;23.330;2023-04-24T15:59:23;16.70;81.50
46562;DHT22;32289;42.688;23.330;2023-04-24T16:03:04;16.70;88.70
46562;DHT22;32289;42.688;23.330;2023-04-24T16:06:45;16.50;93.90
46562;DHT22;32289;42.688;23.330;2023-04-24T16:10:26;16.30;96.60
46562;DHT22;32289;42.688;23.330;2023-04-24T16:14:07;16.30;99.30
46562;DHT22;32289;42.688;23.330;2023-04-24T16:17:49;15.80;99.90
46562;DHT22;32289;42.688;23.330;2023-04-24T16:21:30;15.50;99.90
46562;DHT22;32289;42.688;23.330;2023-04-24T16:25:11;15.10;99.90
46562;DHT22;32289;42.688;23.330;2023-04-24T16:28:53;14.90;99.90
46562;DHT22;32289;42.688;23.330;2023-04-24T16:32:35;14.80;99.90
46562;DHT22;32289;42.688;23.330;2023-04-24T16:36:16;14.80;99.90
46562;DHT22;32289;42.688;23.330;2023-04-24T16:39:57;14.50;99.90
46562;DHT22;32289;42.688;23.330;2023-04-24T16:43:38;14.60;99.90
46562;DHT22;32289;42.688;23.330;2023-04-24T16:47:19;14.50;99.90
46562;DHT22;32289;42.688;23.330;2023-04-24T16:51:03;14.30;99.90
46562;DHT22;32289;42.688;23.330;2023-04-24T16:54:44;14.20;99.90
46562;DHT22;32289;42.688;23.330;2023-04-24T16:58:25;14.40;99.90
46562;DHT22;32289;42.688;23.330;2023-04-24T17:02:06;14.30;99.90
46562;DHT22;32289;42.688;23.330;2023-04-24T17:05:48;14.30;99.90
46562;DHT22;32289;42.688;23.330;2023-04-24T17:09:30;14.50;99.90
46562;DHT22;32289;42.688;23.330;2023-04-24T17:13:11;14.50;99.90
46562;DHT22;32289;42.688;23.330;2023-04-24T17:16:53;14.50;99.90
46562;DHT22;32289;42.688;23.330;2023-04-24T17:20:34;14.20;99.90
46562;DHT22;32289;42.688;23.330;2023-04-24T17:24:16;13.80;99.90
46562;DHT22;32289;42.688;23.330;2023-04-24T17:27:57;13.70;99.90
46562;DHT22;32289;42.688;23.330;2023-04-24T17:31:38;14.00;99.90
46562;DHT22;32289;42.688;23.330;2023-04-24T17:35:19;13.90;99.90
46562;DHT22;32289;42.688;23.330;2023-04-24T17:39:00;13.90;99.90
46562;DHT22;32289;42.688;23.330;2023-04-24T17:42:41;14.10;99.90
46562;DHT22;32289;42.688;23.330;2023-04-24T17:46:22;14.40;99.90
46562;DHT22;32289;42.688;23.330;2023-04-24T17:50:03;14.10;99.90
46562;DHT22;32289;42.688;23.330;2023-04-24T17:53:44;14.30;99.90
46562;DHT22;32289;42.688;23.330;2023-04-24T17:57:24;14.50;99.90
46562;DHT22;32289;42.688;23.330;2023-04-24T18:01:05;14.50;99.90
46562;DHT22;32289;42.688;23.330;2023-04-24T18:04:46;14.50;99.90
46562;DHT22;32289;42.688;23.330;2023-04-24T18:08:27;14.60;99.90
46562;DHT22;32289;42.688;23.330;2023-04-24T18:12:08;14.50;99.90
46562;DHT22;32289;42.688;23.330;2023-04-24T18:15:52;14.10;99.90
46562;DHT22;32289;42.688;23.330;2023-04-24T18:19:33;13.80;99.90
46562;DHT22;32289;42.688;23.330;2023-04-24T18:23:14;13.70;99.90
46562;DHT22;32289;42.688;23.330;2023-04-24T18:26:55;13.00;99.90
46562;DHT22;32289;42.688;23.330;2023-04-24T18:30:36;11.80;99.90
46562;DHT22;32289;42.688;23.330;2023-04-24T18:34:17;11.20;99.90
46562;DHT22;32289;42.688;23.330;2023-04-24T18:37:58;11.10;99.90
46562;DHT22;32289;42.688;23.330;2023-04-24T18:41:39;11.30;99.90
46562;DHT22;32289;42.688;23.330;2023-04-24T18:45:20;11.80;99.90
46562;DHT22;32289;42.688;23.330;2023-04-24T18:49:00;12.00;99.90
46562;DHT22;32289;42.688;23.330;2023-04-24T18:52:42;12.20;99.90
46562;DHT22;32289;42.688;23.330;2023-04-24T18:56:23;12.30;99.90
46562;DHT22;32289;42.688;23.330;2023-04-24T19:00:04;12.30;99.90
46562;DHT22;32289;42.688;23.330;2023-04-24T19:03:45;12.30;99.90
46562;DHT22;32289;42.688;23.330;2023-04-24T19:07:26;12.30;99.90
46562;DHT22;32289;42.688;23.330;2023-04-24T19:11:09;12.10;99.90
46562;DHT22;32289;42.688;23.330;2023-04-24T19:14:49;12.10;99.90
46562;DHT22;32289;42.688;23.330;2023-04-24T19:18:31;12.30;99.90
46562;DHT22;32289;42.688;23.330;2023-04-24T19:22:11;12.10;99.90
46562;DHT22;32289;42.688;23.330;2023-04-24T19:25:52;12.20;99.90
46562;DHT22;32289;42.688;23.330;2023-04-24T19:29:33;12.20;99.90
46562;DHT22;32289;42.688;23.330;2023-04-24T19:33:14;11.80;99.90
46562;DHT22;32289;42.688;23.330;2023-04-24T19:36:55;11.90;99.90
46562;DHT22;32289;42.688;23.330;2023-04-24T19:40:36;11.90;99.90
46562;DHT22;32289;42.688;23.330;2023-04-24T19:44:16;11.80;99.90
46562;DHT22;32289;42.688;23.330;2023-04-24T19:47:58;11.80;99.90
46562;DHT22;32289;42.688;23.330;2023-04-24T19:51:39;11.60;99.90
46562;DHT22;32289;42.688;23.330;2023-04-24T19:55:20;11.60;99.90
46562;DHT22;32289;42.688;23.330;2023-04-24T19:59:01;11.60;99.90
46562;DHT22;32289;42.688;23.330;2023-04-24T20:02:41;11.80;99.90
46562;DHT22;32289;42.688;23.330;2023-04-24T20:06:22;11.70;99.90
46562;DHT22;32289;42.688;23.330;2023-04-24T20:10:03;11.80;99.90
46562;DHT22;32289;42.688;23.330;2023-04-24T20:17:47;11.90;99.90
46562;DHT22;32289;42.688;23.330;2023-04-24T20:21:28;12.00;99.90
46562;DHT22;32289;42.688;23.330;2023-04-24T20:25:10;11.50;99.90
46562;DHT22;32289;42.688;23.330;2023-04-24T20:28:53;11.80;99.90
46562;DHT22;32289;42.688;23.330;2023-04-24T20:32:34;11.40;99.90
46562;DHT22;32289;42.688;23.330;2023-04-24T20:36:17;11.10;99.90
46562;DHT22;32289;42.688;23.330;2023-04-24T20:39:57;11.10;99.90
46562;DHT22;32289;42.688;23.330;2023-04-24T20:43:39;11.20;99.90
46562;DHT22;32289;42.688;23.330;2023-04-24T20:47:22;11.30;99.90
46562;DHT22;32289;42.688;23.330;2023-04-24T20:51:03;11.20;99.90
46562;DHT22;32289;42.688;23.330;2023-04-24T20:54:44;11.20;99.90
46562;DHT22;32289;42.688;23.330;2023-04-24T20:58:26;11.30;99.90
46562;DHT22;32289;42.688;23.330;2023-04-24T21:02:06;11.40;99.90
46562;DHT22;32289;42.688;23.330;2023-04-24T21:05:47;11.50;99.90
46562;DHT22;32289;42.688;23.330;2023-04-24T21:09:28;11.60;99.90
46562;DHT22;32289;42.688;23.330;2023-04-24T21:13:09;11.70;99.90
46562;DHT22;32289;42.688;23.330;2023-04-24T21:16:49;11.60;99.90
46562;DHT22;32289;42.688;23.330;2023-04-24T21:20:31;11.50;99.90
46562;DHT22;32289;42.688;23.330;2023-04-24T21:24:11;11.50;99.90
46562;DHT22;32289;42.688;23.330;2023-04-24T21:27:52;11.30;99.90
46562;DHT22;32289;42.688;23.330;2023-04-24T21:31:33;11.50;99.90
46562;DHT22;32289;42.688;23.330;2023-04-24T21:35:13;11.30;99.90
46562;DHT22;32289;42.688;23.330;2023-04-24T21:38:54;11.10;99.90
46562;DHT22;32289;42.688;23.330;2023-04-24T21:42:35;11.00;99.90
46562;DHT22;32289;42.688;23.330;2023-04-24T21:46:16;10.90;99.90
46562;DHT22;32289;42.688;23.330;2023-04-24T21:49:56;10.70;99.90
46562;DHT22;32289;42.688;23.330;2023-04-24T21:53:39;10.70;99.90
46562;DHT22;32289;42.688;23.330;2023-04-24T21:57:20;10.70;99.90
46562;DHT22;32289;42.688;23.330;2023-04-24T22:52:42;11.00;99.90
46562;DHT22;32289;42.688;23.330;2023-04-24T22:56:25;11.10;99.90
46562;DHT22;32289;42.688;23.330;2023-04-24T23:00:07;11.20;99.90
46562;DHT22;32289;42.688;23.330;2023-04-24T23:03:54;11.10;99.90
46562;DHT22;32289;42.688;23.330;2023-04-24T23:07:43;11.30;99.90
46562;DHT22;32289;42.688;23.330;2023-04-24T23:11:25;11.30;99.90
46562;DHT22;32289;42.688;23.330;2023-04-24T23:15:06;11.30;99.90
46562;DHT22;32289;42.688;23.330;2023-04-24T23:18:47;11.10;99.90
46562;DHT22;32289;42.688;23.330;2023-04-24T23:22:28;11.20;99.90
46562;DHT22;32289;42.688;23.330;2023-04-24T23:26:09;11.20;99.90
46562;DHT22;32289;42.688;23.330;2023-04-24T23:29:49;11.20;99.90
46562;DHT22;32289;42.688;23.330;2023-04-24T23:33:31;11.30;99.90
46562;DHT22;32289;42.688;23.330;2023-04-24T23:37:12;11.20;99.90
46562;DHT22;32289;42.688;23.330;2023-04-24T23:40:52;11.10;99.90
46562;DHT22;32289;42.688;23.330;2023-04-24T23:44:33;10.90;99.90
46562;DHT22;32289;42.688;23.330;2023-04-24T23:48:14;10.90;99.90
46562;DHT22;32289;42.688;23.330;2023-04-24T23:51:55;11.10;99.90
46562;DHT22;32289;42.688;23.330;2023-04-24T23:55:36;11.20;99.90
46562;DHT22;32289;42.688;23.330;2023-04-24T23:59:19;11.00;99.90
